Terminal Aerodrome Forecast
Issued by NWS

Home | Current Version | Previous Version | Text Only | Print | Product List | Glossary On
Versions: 1 2 3 4 5 6 7 8 9 10 11 12 13 14
000
FTUS46 KPDT 230500
TAFRDM
TAF
KRDM 230525Z 2306/2406 VRB06KT P6SM -SHRA BKN100
     FM231000 17005KT P6SM BKN100
     FM232000 29014G23KT P6SM VCTS BKN060CB BKN100
     FM240300 30018G25KT P6SM VCSH SCT060 BKN100=

USA.gov is the U.S. government's official web portal to all federal, state and local government web resources and services.